Adams, Minnesota
Current Conditions -  °F | °C
As of 2:36 AM on Friday 24 Oct 2014 (Local Time) from KAUM Reporting Station
Unknown Precip Unknown Precip  
Wind Chill: 44°   Ceiling: 200
Heat Index: 46°   Visibility: 0mi
Dew Point: 45°   Wind: 5mph
Humidity: 93%   Direction: 130°SE
Pressure: 30"   Gusts: NA
Location:  43.57°N, 92.72°W
Report Text: KAUM 240736Z AUTO 13004KT M1/4SM UP OVC002 08/07 A3000 RMK AO2
Loading
Personal Weather Stations






























Interactive Weather Map
Tropical Storm Tracking
New forecast layout! Learn more

10-Day Weather Forecast

Advertisements
Track Severe Weather on mobile